Date,TemperatureHighF,TemperatureAvgF,TemperatureLowF,DewpointHighF,DewpointAvgF,DewpointLowF,HumidityHigh,HumidityAvg,HumidityLow,PressureMaxIn,PressureMinIn,WindSpeedMaxMPH,WindSpeedAvgMPH,GustSpeedMaxMPH,PrecipitationSumIn
2013-5-1,86.1,69.0,52.1,60.0,55.3,51.0,95,66,35,30.11,30.00,5,1,11,0.00
2013-5-2,79.1,69.9,59.0,58.0,56.1,53.0,82,63,44,30.14,30.02,5,1,10,0.00
2013-5-3,77.8,65.8,60.7,60.0,58.3,56.0,94,78,51,30.02,29.84,16,2,17,0.40
2013-5-4,61.5,56.4,52.3,59.0,51.9,48.0,96,86,62,29.96,29.86,6,1,13,0.82
2013-5-5,54.6,53.1,51.1,53.0,51.0,49.0,96,92,86,29.94,29.84,11,2,16,0.05
2013-5-6,69.9,58.5,52.6,58.0,53.7,51.0,96,85,59,29.90,29.78,13,2,13,0.12
2013-5-7,76.6,63.0,54.0,58.0,55.4,53.0,97,79,45,29.94,29.87,6,1,8,0.15
2013-5-8,79.2,66.4,53.6,62.0,56.2,53.0,97,73,42,29.98,29.89,4,1,9,0.01
2013-5-9,82.2,68.9,56.5,65.0,58.6,54.0,95,72,38,30.01,29.90,7,1,16,0.01
2013-5-10,69.7,66.4,63.3,64.0,61.4,59.0,95,84,72,29.91,29.79,3,1,10,0.56
2013-5-11,65.7,58.2,52.1,62.0,52.3,41.0,95,81,60,30.01,29.84,8,1,12,0.02
2013-5-12,61.6,52.1,40.4,41.0,33.8,29.0,81,53,31,30.14,30.01,7,2,15,0.02
2013-5-13,68.1,52.5,37.0,41.0,35.8,31.0,93,59,27,30.20,30.10,9,1,16,0.00
2013-5-14,84.9,65.3,44.0,60.0,49.6,39.0,87,60,41,30.14,29.82,10,2,18,0.00
2013-5-15,88.2,78.2,69.1,61.0,57.5,52.0,68,51,30,29.94,29.83,13,3,17,0.00
2013-5-16,76.2,71.0,65.5,65.0,59.1,50.0,93,67,48,29.94,29.85,7,1,11,0.02
2013-5-17,77.2,68.3,61.0,67.0,63.0,60.0,97,84,57,30.01,29.93,4,0,9,0.02
2013-5-18,80.3,71.4,65.1,67.0,65.1,63.0,94,81,62,30.00,29.90,5,1,9,0.02
2013-5-19,88.7,75.3,61.3,72.0,67.2,61.0,97,78,52,29.95,29.83,4,1,9,0.00
2013-5-20,87.4,77.0,66.1,72.0,67.7,64.0,94,74,55,29.96,29.83,7,2,14,0.00
2013-5-21,85.3,75.6,68.6,68.0,65.5,63.0,87,72,49,29.92,29.77,13,2,16,0.02
2013-5-22,80.1,71.1,65.1,68.0,63.9,62.0,92,78,58,29.79,29.72,12,2,18,0.26
2013-5-23,71.2,65.2,55.8,64.0,58.2,50.0,94,79,60,30.07,29.78,6,1,13,0.01
2013-5-24,70.0,57.7,50.2,49.0,45.2,37.0,86,66,32,30.30,30.08,9,2,13,0.01
2013-5-25,73.3,58.3,43.5,49.0,44.0,38.0,96,64,30,30.34,30.16,9,1,10,0.00
2013-5-26,76.6,64.6,54.8,55.0,51.9,47.0,91,66,42,30.26,30.11,5,1,10,0.01
2013-5-27,87.0,72.8,58.3,62.0,56.8,53.0,84,60,33,30.11,29.91,8,2,16,0.00
2013-5-28,87.0,79.1,71.0,66.0,61.1,59.0,70,55,42,29.99,29.89,12,2,18,0.00
2013-5-29,89.2,77.6,65.4,67.0,63.1,59.0,82,63,42,30.05,29.94,8,1,14,0.00
2013-5-30,89.0,79.7,70.7,70.0,66.4,62.0,83,65,51,30.07,29.94,9,2,17,0.00
2013-5-31,81.7,75.7,71.6,75.0,68.2,65.0,95,78,67,29.99,29.88,9,2,17,0.24